sensor_id;sensor_type;location;lat;lon;timestamp;P1;durP1;ratioP1;P2;durP2;ratioP2
21270;SDS011;10795;50.796;3.860;2023-02-04T00:02:07;21.20;;;12.18;;
21270;SDS011;10795;50.796;3.860;2023-02-04T00:04:32;20.90;;;12.32;;
21270;SDS011;10795;50.796;3.860;2023-02-04T00:06:58;17.08;;;10.40;;
21270;SDS011;10795;50.796;3.860;2023-02-04T00:09:24;15.93;;;11.35;;
21270;SDS011;10795;50.796;3.860;2023-02-04T00:11:50;19.17;;;12.15;;
21270;SDS011;10795;50.796;3.860;2023-02-04T00:14:15;23.58;;;11.88;;
21270;SDS011;10795;50.796;3.860;2023-02-04T00:16:41;23.75;;;12.00;;
21270;SDS011;10795;50.796;3.860;2023-02-04T00:19:07;14.93;;;8.80;;
21270;SDS011;10795;50.796;3.860;2023-02-04T00:21:33;21.88;;;13.20;;
21270;SDS011;10795;50.796;3.860;2023-02-04T00:23:58;16.38;;;10.55;;
21270;SDS011;10795;50.796;3.860;2023-02-04T00:26:24;24.58;;;11.85;;
21270;SDS011;10795;50.796;3.860;2023-02-04T00:28:50;23.02;;;11.50;;
21270;SDS011;10795;50.796;3.860;2023-02-04T00:31:16;15.77;;;11.68;;
21270;SDS011;10795;50.796;3.860;2023-02-04T00:33:41;22.25;;;12.18;;
21270;SDS011;10795;50.796;3.860;2023-02-04T00:36:08;19.65;;;11.52;;
21270;SDS011;10795;50.796;3.860;2023-02-04T00:38:33;18.05;;;11.20;;
21270;SDS011;10795;50.796;3.860;2023-02-04T00:40:59;12.32;;;6.60;;
21270;SDS011;10795;50.796;3.860;2023-02-04T00:43:25;15.00;;;10.40;;
21270;SDS011;10795;50.796;3.860;2023-02-04T00:45:51;20.73;;;10.93;;
21270;SDS011;10795;50.796;3.860;2023-02-04T00:48:17;8.50;;;5.07;;
21270;SDS011;10795;50.796;3.860;2023-02-04T00:50:42;18.65;;;9.00;;
21270;SDS011;10795;50.796;3.860;2023-02-04T00:53:08;13.30;;;8.38;;
21270;SDS011;10795;50.796;3.860;2023-02-04T00:55:34;12.68;;;7.75;;
21270;SDS011;10795;50.796;3.860;2023-02-04T00:58:00;16.70;;;9.32;;
21270;SDS011;10795;50.796;3.860;2023-02-04T01:00:25;14.85;;;9.27;;
21270;SDS011;10795;50.796;3.860;2023-02-04T01:02:51;14.57;;;9.82;;
21270;SDS011;10795;50.796;3.860;2023-02-04T01:05:17;11.63;;;7.47;;
21270;SDS011;10795;50.796;3.860;2023-02-04T01:07:43;19.40;;;10.13;;
21270;SDS011;10795;50.796;3.860;2023-02-04T01:10:09;17.65;;;10.57;;
21270;SDS011;10795;50.796;3.860;2023-02-04T01:12:35;22.10;;;10.70;;
21270;SDS011;10795;50.796;3.860;2023-02-04T01:15:01;12.38;;;7.82;;
21270;SDS011;10795;50.796;3.860;2023-02-04T01:17:27;7.78;;;4.95;;
21270;SDS011;10795;50.796;3.860;2023-02-04T01:19:53;16.55;;;11.02;;
21270;SDS011;10795;50.796;3.860;2023-02-04T01:22:19;17.33;;;10.77;;
21270;SDS011;10795;50.796;3.860;2023-02-04T01:24:45;17.98;;;10.93;;
21270;SDS011;10795;50.796;3.860;2023-02-04T01:27:31;14.90;;;8.07;;
21270;SDS011;10795;50.796;3.860;2023-02-04T01:29:57;18.02;;;8.80;;
21270;SDS011;10795;50.796;3.860;2023-02-04T01:32:23;10.88;;;7.43;;
21270;SDS011;10795;50.796;3.860;2023-02-04T01:34:50;8.48;;;6.72;;
21270;SDS011;10795;50.796;3.860;2023-02-04T01:37:16;10.90;;;7.00;;
21270;SDS011;10795;50.796;3.860;2023-02-04T01:39:42;12.63;;;8.23;;
21270;SDS011;10795;50.796;3.860;2023-02-04T01:42:08;8.00;;;5.35;;
21270;SDS011;10795;50.796;3.860;2023-02-04T01:44:34;11.25;;;6.07;;
21270;SDS011;10795;50.796;3.860;2023-02-04T01:47:01;12.38;;;7.85;;
21270;SDS011;10795;50.796;3.860;2023-02-04T01:49:26;13.73;;;10.50;;
21270;SDS011;10795;50.796;3.860;2023-02-04T01:51:53;13.40;;;8.63;;
21270;SDS011;10795;50.796;3.860;2023-02-04T01:54:19;18.42;;;10.98;;
21270;SDS011;10795;50.796;3.860;2023-02-04T01:56:46;19.02;;;12.02;;
21270;SDS011;10795;50.796;3.860;2023-02-04T01:59:14;16.40;;;10.55;;
21270;SDS011;10795;50.796;3.860;2023-02-04T02:01:45;15.68;;;8.90;;
21270;SDS011;10795;50.796;3.860;2023-02-04T02:04:17;7.88;;;5.57;;
21270;SDS011;10795;50.796;3.860;2023-02-04T02:06:48;7.30;;;5.57;;
21270;SDS011;10795;50.796;3.860;2023-02-04T02:09:18;7.10;;;5.82;;
21270;SDS011;10795;50.796;3.860;2023-02-04T02:11:44;16.00;;;10.50;;
21270;SDS011;10795;50.796;3.860;2023-02-04T02:14:10;17.92;;;11.20;;
21270;SDS011;10795;50.796;3.860;2023-02-04T02:16:36;8.25;;;5.93;;
21270;SDS011;10795;50.796;3.860;2023-02-04T02:19:02;14.32;;;8.35;;
21270;SDS011;10795;50.796;3.860;2023-02-04T02:24:22;13.27;;;8.93;;
21270;SDS011;10795;50.796;3.860;2023-02-04T02:29:15;9.45;;;5.35;;
21270;SDS011;10795;50.796;3.860;2023-02-04T02:31:41;13.88;;;8.63;;
21270;SDS011;10795;50.796;3.860;2023-02-04T02:34:06;5.05;;;4.55;;
21270;SDS011;10795;50.796;3.860;2023-02-04T02:36:34;14.63;;;9.27;;
21270;SDS011;10795;50.796;3.860;2023-02-04T02:39:00;8.35;;;5.60;;
21270;SDS011;10795;50.796;3.860;2023-02-04T02:41:26;12.02;;;9.10;;
21270;SDS011;10795;50.796;3.860;2023-02-04T02:43:52;7.15;;;5.47;;
21270;SDS011;10795;50.796;3.860;2023-02-04T02:46:17;7.60;;;4.80;;
21270;SDS011;10795;50.796;3.860;2023-02-04T02:48:43;14.57;;;9.20;;
21270;SDS011;10795;50.796;3.860;2023-02-04T02:51:10;8.43;;;6.35;;
21270;SDS011;10795;50.796;3.860;2023-02-04T02:53:36;5.13;;;2.88;;
21270;SDS011;10795;50.796;3.860;2023-02-04T02:56:02;13.82;;;8.88;;
21270;SDS011;10795;50.796;3.860;2023-02-04T02:58:34;16.88;;;10.48;;
21270;SDS011;10795;50.796;3.860;2023-02-04T03:01:05;14.23;;;9.63;;
21270;SDS011;10795;50.796;3.860;2023-02-04T03:03:35;12.27;;;7.88;;
21270;SDS011;10795;50.796;3.860;2023-02-04T03:06:08;15.13;;;9.18;;
21270;SDS011;10795;50.796;3.860;2023-02-04T03:08:35;15.75;;;9.93;;
21270;SDS011;10795;50.796;3.860;2023-02-04T03:11:01;16.35;;;10.48;;
21270;SDS011;10795;50.796;3.860;2023-02-04T03:13:27;17.85;;;10.40;;
21270;SDS011;10795;50.796;3.860;2023-02-04T03:15:55;6.45;;;3.95;;
21270;SDS011;10795;50.796;3.860;2023-02-04T03:18:21;11.77;;;7.43;;
21270;SDS011;10795;50.796;3.860;2023-02-04T03:20:47;13.70;;;9.75;;
21270;SDS011;10795;50.796;3.860;2023-02-04T03:23:15;7.35;;;6.43;;
21270;SDS011;10795;50.796;3.860;2023-02-04T03:25:41;12.30;;;8.98;;
21270;SDS011;10795;50.796;3.860;2023-02-04T03:28:08;8.80;;;7.68;;
21270;SDS011;10795;50.796;3.860;2023-02-04T03:30:35;10.63;;;7.20;;
21270;SDS011;10795;50.796;3.860;2023-02-04T03:33:01;10.15;;;7.53;;
21270;SDS011;10795;50.796;3.860;2023-02-04T03:35:27;9.40;;;6.47;;
21270;SDS011;10795;50.796;3.860;2023-02-04T03:37:53;10.10;;;7.70;;
21270;SDS011;10795;50.796;3.860;2023-02-04T03:40:19;8.02;;;6.60;;
21270;SDS011;10795;50.796;3.860;2023-02-04T03:42:45;8.35;;;6.47;;
21270;SDS011;10795;50.796;3.860;2023-02-04T03:45:11;9.18;;;7.05;;
21270;SDS011;10795;50.796;3.860;2023-02-04T03:47:37;8.25;;;6.60;;
21270;SDS011;10795;50.796;3.860;2023-02-04T03:50:03;6.57;;;4.88;;
21270;SDS011;10795;50.796;3.860;2023-02-04T03:52:29;8.10;;;5.75;;
21270;SDS011;10795;50.796;3.860;2023-02-04T03:54:55;11.85;;;7.50;;
21270;SDS011;10795;50.796;3.860;2023-02-04T03:57:21;2.80;;;2.50;;
21270;SDS011;10795;50.796;3.860;2023-02-04T03:59:47;8.05;;;6.53;;
21270;SDS011;10795;50.796;3.860;2023-02-04T04:02:13;9.73;;;7.68;;
21270;SDS011;10795;50.796;3.860;2023-02-04T04:04:38;6.40;;;5.72;;
21270;SDS011;10795;50.796;3.860;2023-02-04T04:07:04;6.28;;;5.03;;
21270;SDS011;10795;50.796;3.860;2023-02-04T04:09:31;9.27;;;7.43;;
21270;SDS011;10795;50.796;3.860;2023-02-04T04:11:56;8.95;;;7.45;;
21270;SDS011;10795;50.796;3.860;2023-02-04T04:14:22;5.55;;;4.63;;
21270;SDS011;10795;50.796;3.860;2023-02-04T04:16:48;10.65;;;8.43;;
21270;SDS011;10795;50.796;3.860;2023-02-04T04:19:14;11.15;;;9.02;;
21270;SDS011;10795;50.796;3.860;2023-02-04T04:21:40;11.00;;;8.50;;
21270;SDS011;10795;50.796;3.860;2023-02-04T04:24:05;11.85;;;7.53;;
21270;SDS011;10795;50.796;3.860;2023-02-04T04:26:31;5.28;;;4.78;;
21270;SDS011;10795;50.796;3.860;2023-02-04T04:28:57;11.07;;;9.05;;
21270;SDS011;10795;50.796;3.860;2023-02-04T04:31:23;4.95;;;4.45;;
21270;SDS011;10795;50.796;3.860;2023-02-04T04:33:49;11.95;;;9.52;;
21270;SDS011;10795;50.796;3.860;2023-02-04T04:36:15;13.95;;;10.80;;
21270;SDS011;10795;50.796;3.860;2023-02-04T04:38:40;11.25;;;8.32;;
21270;SDS011;10795;50.796;3.860;2023-02-04T04:41:06;4.75;;;4.15;;
21270;SDS011;10795;50.796;3.860;2023-02-04T04:43:32;12.95;;;9.27;;
21270;SDS011;10795;50.796;3.860;2023-02-04T04:45:58;13.48;;;10.68;;
21270;SDS011;10795;50.796;3.860;2023-02-04T04:48:24;14.25;;;9.90;;
21270;SDS011;10795;50.796;3.860;2023-02-04T04:50:49;11.90;;;9.30;;
21270;SDS011;10795;50.796;3.860;2023-02-04T04:53:15;12.02;;;9.93;;
21270;SDS011;10795;50.796;3.860;2023-02-04T04:55:41;15.57;;;11.57;;
21270;SDS011;10795;50.796;3.860;2023-02-04T04:58:07;7.10;;;4.65;;
21270;SDS011;10795;50.796;3.860;2023-02-04T05:00:33;13.40;;;10.55;;
21270;SDS011;10795;50.796;3.860;2023-02-04T05:02:59;15.75;;;11.43;;
21270;SDS011;10795;50.796;3.860;2023-02-04T05:05:25;6.22;;;5.32;;
21270;SDS011;10795;50.796;3.860;2023-02-04T05:07:52;15.43;;;11.80;;
21270;SDS011;10795;50.796;3.860;2023-02-04T05:10:18;9.30;;;7.65;;
21270;SDS011;10795;50.796;3.860;2023-02-04T05:12:45;15.52;;;11.43;;
21270;SDS011;10795;50.796;3.860;2023-02-04T05:15:10;10.30;;;8.40;;
21270;SDS011;10795;50.796;3.860;2023-02-04T05:17:36;18.67;;;12.88;;
21270;SDS011;10795;50.796;3.860;2023-02-04T05:20:02;18.48;;;12.32;;
21270;SDS011;10795;50.796;3.860;2023-02-04T05:22:29;20.98;;;14.18;;
21270;SDS011;10795;50.796;3.860;2023-02-04T05:24:54;20.17;;;14.23;;
21270;SDS011;10795;50.796;3.860;2023-02-04T05:27:20;21.92;;;14.20;;
21270;SDS011;10795;50.796;3.860;2023-02-04T05:29:46;12.27;;;9.65;;
21270;SDS011;10795;50.796;3.860;2023-02-04T05:32:12;21.42;;;14.00;;
21270;SDS011;10795;50.796;3.860;2023-02-04T05:34:38;11.65;;;9.70;;
21270;SDS011;10795;50.796;3.860;2023-02-04T05:37:04;13.93;;;10.68;;
21270;SDS011;10795;50.796;3.860;2023-02-04T05:39:30;3.53;;;3.20;;
21270;SDS011;10795;50.796;3.860;2023-02-04T05:41:55;8.05;;;6.60;;
21270;SDS011;10795;50.796;3.860;2023-02-04T05:44:21;18.10;;;14.18;;
21270;SDS011;10795;50.796;3.860;2023-02-04T05:46:47;21.70;;;15.75;;
21270;SDS011;10795;50.796;3.860;2023-02-04T05:49:13;19.50;;;14.45;;
21270;SDS011;10795;50.796;3.860;2023-02-04T05:51:39;20.92;;;13.95;;
21270;SDS011;10795;50.796;3.860;2023-02-04T05:54:05;16.70;;;11.05;;
21270;SDS011;10795;50.796;3.860;2023-02-04T05:56:30;21.65;;;15.15;;
21270;SDS011;10795;50.796;3.860;2023-02-04T05:58:56;18.38;;;13.75;;
21270;SDS011;10795;50.796;3.860;2023-02-04T06:01:22;12.27;;;9.60;;
21270;SDS011;10795;50.796;3.860;2023-02-04T06:03:48;21.40;;;15.40;;
21270;SDS011;10795;50.796;3.860;2023-02-04T06:06:14;13.13;;;10.00;;
21270;SDS011;10795;50.796;3.860;2023-02-04T06:08:42;20.08;;;14.82;;
21270;SDS011;10795;50.796;3.860;2023-02-04T06:11:08;20.23;;;14.30;;
21270;SDS011;10795;50.796;3.860;2023-02-04T06:13:34;18.65;;;14.13;;
21270;SDS011;10795;50.796;3.860;2023-02-04T06:16:00;14.15;;;10.18;;
21270;SDS011;10795;50.796;3.860;2023-02-04T06:18:26;19.17;;;15.10;;
21270;SDS011;10795;50.796;3.860;2023-02-04T06:20:52;12.82;;;10.45;;
21270;SDS011;10795;50.796;3.860;2023-02-04T06:23:17;9.05;;;6.72;;
21270;SDS011;10795;50.796;3.860;2023-02-04T06:25:43;19.92;;;14.48;;
21270;SDS011;10795;50.796;3.860;2023-02-04T06:28:11;18.02;;;13.05;;
21270;SDS011;10795;50.796;3.860;2023-02-04T06:30:37;20.63;;;15.77;;
21270;SDS011;10795;50.796;3.860;2023-02-04T06:33:03;11.95;;;8.88;;
21270;SDS011;10795;50.796;3.860;2023-02-04T06:35:29;28.58;;;16.02;;
21270;SDS011;10795;50.796;3.860;2023-02-04T06:37:56;24.67;;;16.23;;
21270;SDS011;10795;50.796;3.860;2023-02-04T06:40:21;22.42;;;16.10;;
21270;SDS011;10795;50.796;3.860;2023-02-04T06:42:47;10.82;;;7.68;;
21270;SDS011;10795;50.796;3.860;2023-02-04T06:45:13;23.50;;;17.15;;
21270;SDS011;10795;50.796;3.860;2023-02-04T06:47:39;14.07;;;11.32;;
21270;SDS011;10795;50.796;3.860;2023-02-04T06:50:05;22.95;;;15.90;;
21270;SDS011;10795;50.796;3.860;2023-02-04T06:52:31;23.88;;;16.38;;
21270;SDS011;10795;50.796;3.860;2023-02-04T06:54:57;24.83;;;16.63;;
21270;SDS011;10795;50.796;3.860;2023-02-04T06:57:23;25.58;;;17.38;;
21270;SDS011;10795;50.796;3.860;2023-02-04T06:59:49;25.23;;;16.25;;
21270;SDS011;10795;50.796;3.860;2023-02-04T07:02:14;26.00;;;17.58;;
21270;SDS011;10795;50.796;3.860;2023-02-04T07:04:40;21.13;;;13.30;;
21270;SDS011;10795;50.796;3.860;2023-02-04T07:07:08;11.40;;;7.68;;
21270;SDS011;10795;50.796;3.860;2023-02-04T07:09:34;18.70;;;11.93;;
21270;SDS011;10795;50.796;3.860;2023-02-04T07:12:01;27.65;;;15.82;;
21270;SDS011;10795;50.796;3.860;2023-02-04T07:14:27;24.23;;;15.52;;
21270;SDS011;10795;50.796;3.860;2023-02-04T07:16:53;25.35;;;15.20;;
21270;SDS011;10795;50.796;3.860;2023-02-04T07:19:22;17.95;;;11.60;;
21270;SDS011;10795;50.796;3.860;2023-02-04T07:21:48;19.63;;;12.63;;
21270;SDS011;10795;50.796;3.860;2023-02-04T07:24:18;27.52;;;16.55;;
21270;SDS011;10795;50.796;3.860;2023-02-04T07:26:44;26.13;;;15.88;;
21270;SDS011;10795;50.796;3.860;2023-02-04T07:29:10;24.20;;;15.60;;
21270;SDS011;10795;50.796;3.860;2023-02-04T07:31:36;24.02;;;14.90;;
21270;SDS011;10795;50.796;3.860;2023-02-04T07:34:02;23.48;;;15.43;;
21270;SDS011;10795;50.796;3.860;2023-02-04T07:36:28;25.10;;;15.95;;
21270;SDS011;10795;50.796;3.860;2023-02-04T07:39:05;27.95;;;16.00;;
21270;SDS011;10795;50.796;3.860;2023-02-04T07:41:31;24.40;;;14.63;;
21270;SDS011;10795;50.796;3.860;2023-02-04T07:43:58;25.80;;;15.52;;
21270;SDS011;10795;50.796;3.860;2023-02-04T07:46:24;27.95;;;15.93;;
21270;SDS011;10795;50.796;3.860;2023-02-04T07:48:50;22.52;;;15.80;;
21270;SDS011;10795;50.796;3.860;2023-02-04T07:51:16;25.67;;;15.70;;
21270;SDS011;10795;50.796;3.860;2023-02-04T07:53:42;31.35;;;17.35;;
21270;SDS011;10795;50.796;3.860;2023-02-04T07:56:08;28.80;;;17.23;;
21270;SDS011;10795;50.796;3.860;2023-02-04T07:58:34;32.03;;;18.50;;
21270;SDS011;10795;50.796;3.860;2023-02-04T08:01:00;31.70;;;18.50;;
21270;SDS011;10795;50.796;3.860;2023-02-04T08:03:26;36.10;;;19.65;;
21270;SDS011;10795;50.796;3.860;2023-02-04T08:05:52;32.20;;;18.33;;
21270;SDS011;10795;50.796;3.860;2023-02-04T08:08:18;30.67;;;17.42;;
21270;SDS011;10795;50.796;3.860;2023-02-04T08:10:44;35.65;;;19.52;;
21270;SDS011;10795;50.796;3.860;2023-02-04T08:13:10;36.33;;;19.83;;
21270;SDS011;10795;50.796;3.860;2023-02-04T08:15:36;35.95;;;19.98;;
21270;SDS011;10795;50.796;3.860;2023-02-04T08:18:05;31.83;;;18.23;;
21270;SDS011;10795;50.796;3.860;2023-02-04T08:20:31;39.75;;;18.40;;
21270;SDS011;10795;50.796;3.860;2023-02-04T08:22:57;29.33;;;18.42;;
21270;SDS011;10795;50.796;3.860;2023-02-04T08:25:23;31.52;;;17.02;;
21270;SDS011;10795;50.796;3.860;2023-02-04T08:27:48;27.27;;;16.58;;
21270;SDS011;10795;50.796;3.860;2023-02-04T08:30:14;29.70;;;17.02;;
21270;SDS011;10795;50.796;3.860;2023-02-04T08:32:40;29.88;;;16.45;;
21270;SDS011;10795;50.796;3.860;2023-02-04T08:35:06;28.45;;;16.70;;
21270;SDS011;10795;50.796;3.860;2023-02-04T08:37:33;24.83;;;15.52;;
21270;SDS011;10795;50.796;3.860;2023-02-04T08:39:59;26.70;;;15.88;;
21270;SDS011;10795;50.796;3.860;2023-02-04T08:42:27;26.40;;;15.70;;
21270;SDS011;10795;50.796;3.860;2023-02-04T08:44:53;30.15;;;15.15;;
21270;SDS011;10795;50.796;3.860;2023-02-04T08:47:19;34.30;;;15.48;;
21270;SDS011;10795;50.796;3.860;2023-02-04T08:49:45;28.05;;;15.63;;
21270;SDS011;10795;50.796;3.860;2023-02-04T08:52:11;26.58;;;14.38;;
21270;SDS011;10795;50.796;3.860;2023-02-04T08:54:36;27.33;;;15.23;;
21270;SDS011;10795;50.796;3.860;2023-02-04T08:57:02;29.13;;;14.40;;
21270;SDS011;10795;50.796;3.860;2023-02-04T08:59:28;24.30;;;14.27;;
21270;SDS011;10795;50.796;3.860;2023-02-04T09:01:54;27.00;;;13.45;;
21270;SDS011;10795;50.796;3.860;2023-02-04T09:04:21;22.77;;;13.30;;
21270;SDS011;10795;50.796;3.860;2023-02-04T09:06:48;27.65;;;13.95;;
21270;SDS011;10795;50.796;3.860;2023-02-04T09:09:15;27.20;;;12.98;;
21270;SDS011;10795;50.796;3.860;2023-02-04T09:11:41;21.95;;;12.73;;
21270;SDS011;10795;50.796;3.860;2023-02-04T09:14:07;22.10;;;12.85;;
21270;SDS011;10795;50.796;3.860;2023-02-04T09:16:33;27.58;;;13.27;;
21270;SDS011;10795;50.796;3.860;2023-02-04T09:18:59;23.55;;;12.75;;
21270;SDS011;10795;50.796;3.860;2023-02-04T09:21:26;20.27;;;10.25;;
21270;SDS011;10795;50.796;3.860;2023-02-04T09:23:53;21.77;;;12.20;;
21270;SDS011;10795;50.796;3.860;2023-02-04T09:26:19;21.48;;;11.32;;
21270;SDS011;10795;50.796;3.860;2023-02-04T09:28:45;20.95;;;11.65;;
21270;SDS011;10795;50.796;3.860;2023-02-04T09:31:12;6.95;;;5.03;;
21270;SDS011;10795;50.796;3.860;2023-02-04T09:33:39;7.93;;;5.30;;
21270;SDS011;10795;50.796;3.860;2023-02-04T09:36:07;21.67;;;11.77;;
21270;SDS011;10795;50.796;3.860;2023-02-04T09:38:33;19.80;;;12.15;;
21270;SDS011;10795;50.796;3.860;2023-02-04T09:41:01;24.33;;;11.95;;
21270;SDS011;10795;50.796;3.860;2023-02-04T09:43:31;24.50;;;12.32;;
21270;SDS011;10795;50.796;3.860;2023-02-04T09:46:02;22.85;;;12.23;;
21270;SDS011;10795;50.796;3.860;2023-02-04T09:48:28;22.77;;;12.85;;
21270;SDS011;10795;50.796;3.860;2023-02-04T09:51:02;23.55;;;12.27;;
21270;SDS011;10795;50.796;3.860;2023-02-04T09:53:30;6.13;;;4.10;;
21270;SDS011;10795;50.796;3.860;2023-02-04T09:55:57;19.48;;;10.93;;
21270;SDS011;10795;50.796;3.860;2023-02-04T09:58:23;25.02;;;12.40;;
21270;SDS011;10795;50.796;3.860;2023-02-04T10:00:57;19.67;;;11.48;;
21270;SDS011;10795;50.796;3.860;2023-02-04T10:03:25;20.05;;;11.57;;
21270;SDS011;10795;50.796;3.860;2023-02-04T10:05:54;24.97;;;12.60;;
21270;SDS011;10795;50.796;3.860;2023-02-04T10:08:25;23.45;;;13.57;;
21270;SDS011;10795;50.796;3.860;2023-02-04T10:10:53;4.97;;;3.40;;
21270;SDS011;10795;50.796;3.860;2023-02-04T10:13:20;14.85;;;8.88;;
21270;SDS011;10795;50.796;3.860;2023-02-04T10:15:52;11.57;;;7.13;;
21270;SDS011;10795;50.796;3.860;2023-02-04T10:18:25;17.95;;;10.82;;
21270;SDS011;10795;50.796;3.860;2023-02-04T10:21:00;21.77;;;12.68;;
21270;SDS011;10795;50.796;3.860;2023-02-04T10:23:31;19.20;;;12.52;;
21270;SDS011;10795;50.796;3.860;2023-02-04T10:25:59;7.32;;;5.05;;
21270;SDS011;10795;50.796;3.860;2023-02-04T10:28:31;21.60;;;12.25;;
21270;SDS011;10795;50.796;3.860;2023-02-04T10:30:58;16.20;;;11.80;;
21270;SDS011;10795;50.796;3.860;2023-02-04T10:33:24;21.85;;;12.68;;
21270;SDS011;10795;50.796;3.860;2023-02-04T10:35:51;21.10;;;13.20;;
21270;SDS011;10795;50.796;3.860;2023-02-04T10:38:19;18.50;;;12.45;;
21270;SDS011;10795;50.796;3.860;2023-02-04T10:40:45;18.63;;;12.98;;
21270;SDS011;10795;50.796;3.860;2023-02-04T10:43:15;18.27;;;12.75;;
21270;SDS011;10795;50.796;3.860;2023-02-04T10:45:43;19.15;;;13.43;;
21270;SDS011;10795;50.796;3.860;2023-02-04T10:48:15;17.25;;;10.10;;
21270;SDS011;10795;50.796;3.860;2023-02-04T10:50:41;21.40;;;13.40;;
21270;SDS011;10795;50.796;3.860;2023-02-04T10:53:07;18.58;;;13.50;;
21270;SDS011;10795;50.796;3.860;2023-02-04T10:55:54;19.45;;;13.35;;
21270;SDS011;10795;50.796;3.860;2023-02-04T10:58:25;23.95;;;14.32;;
21270;SDS011;10795;50.796;3.860;2023-02-04T11:00:53;21.70;;;11.90;;
21270;SDS011;10795;50.796;3.860;2023-02-04T11:03:22;11.05;;;6.35;;
21270;SDS011;10795;50.796;3.860;2023-02-04T11:05:50;18.73;;;13.68;;
21270;SDS011;10795;50.796;3.860;2023-02-04T11:08:32;18.38;;;10.43;;
21270;SDS011;10795;50.796;3.860;2023-02-04T11:11:03;20.10;;;12.75;;
21270;SDS011;10795;50.796;3.860;2023-02-04T11:18:52;22.90;;;13.57;;
21270;SDS011;10795;50.796;3.860;2023-02-04T11:24:36;18.88;;;11.02;;
21270;SDS011;10795;50.796;3.860;2023-02-04T11:26:38;24.55;;;11.75;;
21270;SDS011;10795;50.796;3.860;2023-02-04T11:31:59;8.88;;;4.82;;
21270;SDS011;10795;50.796;3.860;2023-02-04T11:34:29;15.50;;;8.63;;
21270;SDS011;10795;50.796;3.860;2023-02-04T11:37:04;10.80;;;7.50;;
21270;SDS011;10795;50.796;3.860;2023-02-04T11:39:40;14.30;;;9.50;;
21270;SDS011;10795;50.796;3.860;2023-02-04T11:44:51;10.88;;;7.53;;
21270;SDS011;10795;50.796;3.860;2023-02-04T11:47:36;13.50;;;9.15;;
21270;SDS011;10795;50.796;3.860;2023-02-04T11:50:09;17.23;;;9.65;;
21270;SDS011;10795;50.796;3.860;2023-02-04T11:52:39;16.83;;;9.95;;
21270;SDS011;10795;50.796;3.860;2023-02-04T11:55:04;13.57;;;8.88;;
21270;SDS011;10795;50.796;3.860;2023-02-04T11:57:36;12.20;;;8.95;;
21270;SDS011;10795;50.796;3.860;2023-02-04T12:00:19;18.27;;;10.40;;
21270;SDS011;10795;50.796;3.860;2023-02-04T12:02:58;18.42;;;11.30;;
21270;SDS011;10795;50.796;3.860;2023-02-04T12:05:39;18.90;;;12.18;;
21270;SDS011;10795;50.796;3.860;2023-02-04T12:08:11;23.75;;;13.10;;
21270;SDS011;10795;50.796;3.860;2023-02-04T12:10:37;18.23;;;11.35;;
21270;SDS011;10795;50.796;3.860;2023-02-04T12:13:11;20.83;;;12.07;;
21270;SDS011;10795;50.796;3.860;2023-02-04T12:15:40;18.50;;;11.10;;
21270;SDS011;10795;50.796;3.860;2023-02-04T12:18:09;15.80;;;11.80;;
21270;SDS011;10795;50.796;3.860;2023-02-04T12:20:40;21.13;;;11.70;;
21270;SDS011;10795;50.796;3.860;2023-02-04T12:23:06;18.25;;;10.25;;
21270;SDS011;10795;50.796;3.860;2023-02-04T12:25:32;10.00;;;7.18;;
21270;SDS011;10795;50.796;3.860;2023-02-04T12:27:58;15.93;;;8.25;;
21270;SDS011;10795;50.796;3.860;2023-02-04T12:30:25;11.70;;;7.25;;
21270;SDS011;10795;50.796;3.860;2023-02-04T12:32:51;12.23;;;7.30;;
21270;SDS011;10795;50.796;3.860;2023-02-04T12:35:20;4.55;;;3.25;;
21270;SDS011;10795;50.796;3.860;2023-02-04T12:37:45;9.57;;;4.78;;
21270;SDS011;10795;50.796;3.860;2023-02-04T12:40:18;13.27;;;6.13;;
21270;SDS011;10795;50.796;3.860;2023-02-04T12:42:45;8.27;;;3.88;;
21270;SDS011;10795;50.796;3.860;2023-02-04T12:45:12;4.28;;;2.83;;
21270;SDS011;10795;50.796;3.860;2023-02-04T12:47:40;9.15;;;5.78;;
21270;SDS011;10795;50.796;3.860;2023-02-04T12:50:10;6.45;;;3.58;;
21270;SDS011;10795;50.796;3.860;2023-02-04T12:52:38;9.88;;;4.65;;
21270;SDS011;10795;50.796;3.860;2023-02-04T12:55:04;13.43;;;6.70;;
21270;SDS011;10795;50.796;3.860;2023-02-04T12:57:32;13.43;;;6.15;;
21270;SDS011;10795;50.796;3.860;2023-02-04T12:59:58;11.23;;;5.93;;
21270;SDS011;10795;50.796;3.860;2023-02-04T13:02:28;12.93;;;6.03;;
21270;SDS011;10795;50.796;3.860;2023-02-04T13:04:54;7.22;;;5.38;;
21270;SDS011;10795;50.796;3.860;2023-02-04T13:07:27;11.18;;;6.05;;
21270;SDS011;10795;50.796;3.860;2023-02-04T13:12:23;16.05;;;5.72;;
21270;SDS011;10795;50.796;3.860;2023-02-04T13:14:52;18.77;;;5.90;;
21270;SDS011;10795;50.796;3.860;2023-02-04T13:17:19;10.88;;;5.30;;
21270;SDS011;10795;50.796;3.860;2023-02-04T13:19:45;9.73;;;5.25;;
21270;SDS011;10795;50.796;3.860;2023-02-04T13:22:11;8.48;;;4.15;;
21270;SDS011;10795;50.796;3.860;2023-02-04T13:24:36;10.45;;;4.57;;
21270;SDS011;10795;50.796;3.860;2023-02-04T13:27:02;9.80;;;4.90;;
21270;SDS011;10795;50.796;3.860;2023-02-04T13:29:28;11.60;;;5.38;;
21270;SDS011;10795;50.796;3.860;2023-02-04T13:31:54;7.55;;;4.90;;
21270;SDS011;10795;50.796;3.860;2023-02-04T13:34:20;5.65;;;3.10;;
21270;SDS011;10795;50.796;3.860;2023-02-04T13:36:46;10.75;;;4.47;;
21270;SDS011;10795;50.796;3.860;2023-02-04T13:39:12;6.60;;;3.55;;
21270;SDS011;10795;50.796;3.860;2023-02-04T13:41:38;9.70;;;5.10;;
21270;SDS011;10795;50.796;3.860;2023-02-04T13:44:05;11.15;;;5.35;;
21270;SDS011;10795;50.796;3.860;2023-02-04T13:46:31;9.27;;;4.78;;
21270;SDS011;10795;50.796;3.860;2023-02-04T13:48:57;10.27;;;5.72;;
21270;SDS011;10795;50.796;3.860;2023-02-04T13:51:23;11.25;;;5.85;;
21270;SDS011;10795;50.796;3.860;2023-02-04T13:53:50;7.32;;;4.03;;
21270;SDS011;10795;50.796;3.860;2023-02-04T13:56:15;11.05;;;5.25;;
21270;SDS011;10795;50.796;3.860;2023-02-04T13:58:41;12.43;;;5.60;;
21270;SDS011;10795;50.796;3.860;2023-02-04T14:01:09;11.10;;;5.10;;
21270;SDS011;10795;50.796;3.860;2023-02-04T14:03:38;9.95;;;5.97;;
21270;SDS011;10795;50.796;3.860;2023-02-04T14:06:07;11.85;;;6.43;;
21270;SDS011;10795;50.796;3.860;2023-02-04T14:08:34;5.45;;;2.45;;
21270;SDS011;10795;50.796;3.860;2023-02-04T14:10:59;4.32;;;2.63;;
21270;SDS011;10795;50.796;3.860;2023-02-04T14:13:25;13.30;;;6.32;;
21270;SDS011;10795;50.796;3.860;2023-02-04T14:15:51;7.90;;;5.68;;
21270;SDS011;10795;50.796;3.860;2023-02-04T14:18:17;10.82;;;6.32;;
21270;SDS011;10795;50.796;3.860;2023-02-04T14:20:43;5.25;;;3.05;;
21270;SDS011;10795;50.796;3.860;2023-02-04T14:23:09;12.27;;;6.05;;
21270;SDS011;10795;50.796;3.860;2023-02-04T14:25:38;13.97;;;6.17;;
21270;SDS011;10795;50.796;3.860;2023-02-04T14:28:04;9.73;;;5.90;;
21270;SDS011;10795;50.796;3.860;2023-02-04T14:30:30;9.65;;;6.18;;
21270;SDS011;10795;50.796;3.860;2023-02-04T14:32:57;9.77;;;5.88;;
21270;SDS011;10795;50.796;3.860;2023-02-04T14:35:23;3.50;;;2.75;;
21270;SDS011;10795;50.796;3.860;2023-02-04T14:37:50;14.13;;;6.82;;
21270;SDS011;10795;50.796;3.860;2023-02-04T14:40:17;9.77;;;6.18;;
21270;SDS011;10795;50.796;3.860;2023-02-04T14:42:43;13.77;;;6.10;;
21270;SDS011;10795;50.796;3.860;2023-02-04T14:45:10;9.25;;;6.30;;
21270;SDS011;10795;50.796;3.860;2023-02-04T14:47:38;11.15;;;6.22;;
21270;SDS011;10795;50.796;3.860;2023-02-04T14:50:05;10.38;;;6.72;;
21270;SDS011;10795;50.796;3.860;2023-02-04T14:52:35;12.85;;;6.72;;